sensor_id;sensor_type;location;lat;lon;timestamp;P1;durP1;ratioP1;P2;durP2;ratioP2
19830;SDS011;10076;52.008;4.708;2022-11-20T00:00:55;3.97;;;2.03;;
19830;SDS011;10076;52.008;4.708;2022-11-20T00:03:20;3.83;;;2.53;;
19830;SDS011;10076;52.008;4.708;2022-11-20T00:05:46;4.83;;;2.87;;
19830;SDS011;10076;52.008;4.708;2022-11-20T00:08:11;5.70;;;2.77;;
19830;SDS011;10076;52.008;4.708;2022-11-20T00:10:38;7.43;;;3.57;;
19830;SDS011;10076;52.008;4.708;2022-11-20T00:13:04;5.50;;;2.87;;
19830;SDS011;10076;52.008;4.708;2022-11-20T00:15:30;4.83;;;2.97;;
19830;SDS011;10076;52.008;4.708;2022-11-20T00:17:55;4.07;;;2.63;;
19830;SDS011;10076;52.008;4.708;2022-11-20T00:20:21;3.40;;;2.67;;
19830;SDS011;10076;52.008;4.708;2022-11-20T00:22:46;6.50;;;3.77;;
19830;SDS011;10076;52.008;4.708;2022-11-20T00:25:11;3.53;;;3.23;;
19830;SDS011;10076;52.008;4.708;2022-11-20T00:27:37;6.13;;;2.90;;
19830;SDS011;10076;52.008;4.708;2022-11-20T00:30:03;6.83;;;2.77;;
19830;SDS011;10076;52.008;4.708;2022-11-20T00:32:29;6.60;;;2.90;;
19830;SDS011;10076;52.008;4.708;2022-11-20T00:34:54;2.73;;;2.50;;
19830;SDS011;10076;52.008;4.708;2022-11-20T00:37:19;4.90;;;2.43;;
19830;SDS011;10076;52.008;4.708;2022-11-20T00:39:45;6.43;;;3.73;;
19830;SDS011;10076;52.008;4.708;2022-11-20T00:42:10;5.97;;;3.37;;
19830;SDS011;10076;52.008;4.708;2022-11-20T00:44:35;5.17;;;2.37;;
19830;SDS011;10076;52.008;4.708;2022-11-20T00:47:00;2.60;;;2.17;;
19830;SDS011;10076;52.008;4.708;2022-11-20T00:49:26;4.03;;;2.10;;
19830;SDS011;10076;52.008;4.708;2022-11-20T00:51:51;5.07;;;3.07;;
19830;SDS011;10076;52.008;4.708;2022-11-20T00:54:16;4.37;;;2.20;;
19830;SDS011;10076;52.008;4.708;2022-11-20T00:56:41;4.63;;;2.33;;
19830;SDS011;10076;52.008;4.708;2022-11-20T00:59:08;3.97;;;2.83;;
19830;SDS011;10076;52.008;4.708;2022-11-20T01:01:34;2.83;;;2.27;;
19830;SDS011;10076;52.008;4.708;2022-11-20T01:04:01;3.90;;;2.90;;
19830;SDS011;10076;52.008;4.708;2022-11-20T01:06:28;5.73;;;2.07;;
19830;SDS011;10076;52.008;4.708;2022-11-20T01:08:56;3.60;;;2.20;;
19830;SDS011;10076;52.008;4.708;2022-11-20T01:11:24;5.00;;;2.67;;
19830;SDS011;10076;52.008;4.708;2022-11-20T01:13:51;3.30;;;2.80;;
19830;SDS011;10076;52.008;4.708;2022-11-20T01:18:44;6.37;;;3.33;;
19830;SDS011;10076;52.008;4.708;2022-11-20T01:21:11;3.77;;;2.90;;
19830;SDS011;10076;52.008;4.708;2022-11-20T01:23:57;5.97;;;2.60;;
19830;SDS011;10076;52.008;4.708;2022-11-20T01:26:24;4.50;;;2.80;;
19830;SDS011;10076;52.008;4.708;2022-11-20T01:28:53;5.70;;;3.20;;
19830;SDS011;10076;52.008;4.708;2022-11-20T01:31:20;8.80;;;3.40;;
19830;SDS011;10076;52.008;4.708;2022-11-20T01:33:49;4.90;;;2.50;;
19830;SDS011;10076;52.008;4.708;2022-11-20T01:36:16;7.43;;;3.17;;
19830;SDS011;10076;52.008;4.708;2022-11-20T01:38:43;3.17;;;2.63;;
19830;SDS011;10076;52.008;4.708;2022-11-20T01:41:08;5.00;;;3.03;;
19830;SDS011;10076;52.008;4.708;2022-11-20T01:43:35;2.37;;;1.93;;
19830;SDS011;10076;52.008;4.708;2022-11-20T01:51:19;5.07;;;2.20;;
19830;SDS011;10076;52.008;4.708;2022-11-20T01:53:48;6.23;;;3.20;;
19830;SDS011;10076;52.008;4.708;2022-11-20T01:56:15;8.67;;;2.80;;
19830;SDS011;10076;52.008;4.708;2022-11-20T01:58:42;4.80;;;3.00;;
19830;SDS011;10076;52.008;4.708;2022-11-20T02:01:12;2.37;;;2.13;;
19830;SDS011;10076;52.008;4.708;2022-11-20T02:03:38;4.43;;;3.13;;
19830;SDS011;10076;52.008;4.708;2022-11-20T02:06:18;4.10;;;2.10;;
19830;SDS011;10076;52.008;4.708;2022-11-20T02:08:48;3.40;;;2.57;;
19830;SDS011;10076;52.008;4.708;2022-11-20T02:11:13;7.00;;;3.07;;
19830;SDS011;10076;52.008;4.708;2022-11-20T02:13:38;4.77;;;3.67;;
19830;SDS011;10076;52.008;4.708;2022-11-20T02:18:50;7.47;;;4.10;;
19830;SDS011;10076;52.008;4.708;2022-11-20T02:21:21;8.87;;;3.10;;
19830;SDS011;10076;52.008;4.708;2022-11-20T02:26:23;3.83;;;3.23;;
19830;SDS011;10076;52.008;4.708;2022-11-20T02:28:51;7.50;;;2.80;;
19830;SDS011;10076;52.008;4.708;2022-11-20T02:31:16;4.00;;;2.37;;
19830;SDS011;10076;52.008;4.708;2022-11-20T02:33:41;3.33;;;2.23;;
19830;SDS011;10076;52.008;4.708;2022-11-20T02:36:08;4.27;;;2.03;;
19830;SDS011;10076;52.008;4.708;2022-11-20T02:38:36;9.93;;;3.83;;
19830;SDS011;10076;52.008;4.708;2022-11-20T02:41:01;3.90;;;3.13;;
19830;SDS011;10076;52.008;4.708;2022-11-20T02:43:26;5.37;;;3.20;;
19830;SDS011;10076;52.008;4.708;2022-11-20T02:45:51;3.97;;;2.53;;
19830;SDS011;10076;52.008;4.708;2022-11-20T02:48:17;7.60;;;2.53;;
19830;SDS011;10076;52.008;4.708;2022-11-20T02:50:42;5.07;;;1.97;;
19830;SDS011;10076;52.008;4.708;2022-11-20T02:53:07;3.47;;;2.00;;
19830;SDS011;10076;52.008;4.708;2022-11-20T02:55:33;6.13;;;2.87;;
19830;SDS011;10076;52.008;4.708;2022-11-20T02:57:58;3.30;;;2.43;;
19830;SDS011;10076;52.008;4.708;2022-11-20T03:00:23;2.17;;;1.97;;
19830;SDS011;10076;52.008;4.708;2022-11-20T03:02:49;2.87;;;2.57;;
19830;SDS011;10076;52.008;4.708;2022-11-20T03:05:14;6.40;;;2.97;;
19830;SDS011;10076;52.008;4.708;2022-11-20T03:07:40;6.00;;;3.47;;
19830;SDS011;10076;52.008;4.708;2022-11-20T03:10:05;3.90;;;2.37;;
19830;SDS011;10076;52.008;4.708;2022-11-20T03:12:31;6.47;;;3.40;;
19830;SDS011;10076;52.008;4.708;2022-11-20T03:14:56;5.40;;;2.03;;
19830;SDS011;10076;52.008;4.708;2022-11-20T03:17:21;10.10;;;3.73;;
19830;SDS011;10076;52.008;4.708;2022-11-20T03:19:47;3.73;;;2.80;;
19830;SDS011;10076;52.008;4.708;2022-11-20T03:22:12;3.13;;;2.53;;
19830;SDS011;10076;52.008;4.708;2022-11-20T03:24:37;4.73;;;2.77;;
19830;SDS011;10076;52.008;4.708;2022-11-20T03:27:03;5.77;;;3.13;;
19830;SDS011;10076;52.008;4.708;2022-11-20T03:29:28;5.53;;;3.20;;
19830;SDS011;10076;52.008;4.708;2022-11-20T03:31:53;2.53;;;2.30;;
19830;SDS011;10076;52.008;4.708;2022-11-20T03:34:19;3.93;;;2.47;;
19830;SDS011;10076;52.008;4.708;2022-11-20T03:36:44;4.60;;;3.23;;
19830;SDS011;10076;52.008;4.708;2022-11-20T03:39:09;3.30;;;2.47;;
19830;SDS011;10076;52.008;4.708;2022-11-20T03:41:36;5.90;;;2.40;;
19830;SDS011;10076;52.008;4.708;2022-11-20T03:44:03;6.00;;;2.37;;
19830;SDS011;10076;52.008;4.708;2022-11-20T03:46:30;6.53;;;3.37;;
19830;SDS011;10076;52.008;4.708;2022-11-20T03:48:56;4.47;;;2.47;;
19830;SDS011;10076;52.008;4.708;2022-11-20T03:51:23;4.13;;;2.80;;
19830;SDS011;10076;52.008;4.708;2022-11-20T03:53:51;5.97;;;2.93;;
19830;SDS011;10076;52.008;4.708;2022-11-20T03:56:19;5.17;;;3.43;;
19830;SDS011;10076;52.008;4.708;2022-11-20T03:58:47;4.50;;;2.37;;
19830;SDS011;10076;52.008;4.708;2022-11-20T04:01:14;5.23;;;2.70;;
19830;SDS011;10076;52.008;4.708;2022-11-20T04:03:41;6.33;;;2.83;;
19830;SDS011;10076;52.008;4.708;2022-11-20T04:06:18;2.93;;;2.67;;
19830;SDS011;10076;52.008;4.708;2022-11-20T04:08:48;2.63;;;2.40;;
19830;SDS011;10076;52.008;4.708;2022-11-20T04:11:17;4.33;;;2.50;;
19830;SDS011;10076;52.008;4.708;2022-11-20T04:13:54;2.70;;;2.47;;
19830;SDS011;10076;52.008;4.708;2022-11-20T04:16:21;3.30;;;2.27;;
19830;SDS011;10076;52.008;4.708;2022-11-20T04:18:51;3.87;;;2.43;;
19830;SDS011;10076;52.008;4.708;2022-11-20T04:21:17;6.73;;;3.13;;
19830;SDS011;10076;52.008;4.708;2022-11-20T04:23:43;7.60;;;4.33;;
19830;SDS011;10076;52.008;4.708;2022-11-20T04:26:09;5.63;;;3.20;;
19830;SDS011;10076;52.008;4.708;2022-11-20T04:28:36;7.87;;;4.23;;
19830;SDS011;10076;52.008;4.708;2022-11-20T04:31:03;4.97;;;3.60;;
19830;SDS011;10076;52.008;4.708;2022-11-20T04:33:36;7.93;;;2.63;;
19830;SDS011;10076;52.008;4.708;2022-11-20T04:36:06;2.60;;;2.00;;
19830;SDS011;10076;52.008;4.708;2022-11-20T04:38:35;4.07;;;3.10;;
19830;SDS011;10076;52.008;4.708;2022-11-20T04:41:02;4.13;;;3.23;;
19830;SDS011;10076;52.008;4.708;2022-11-20T04:43:29;8.07;;;2.80;;
19830;SDS011;10076;52.008;4.708;2022-11-20T04:45:56;5.23;;;2.47;;
19830;SDS011;10076;52.008;4.708;2022-11-20T04:48:22;5.00;;;3.00;;
19830;SDS011;10076;52.008;4.708;2022-11-20T04:50:48;4.90;;;3.37;;
19830;SDS011;10076;52.008;4.708;2022-11-20T04:53:14;3.10;;;2.57;;
19830;SDS011;10076;52.008;4.708;2022-11-20T04:55:40;4.17;;;3.43;;
19830;SDS011;10076;52.008;4.708;2022-11-20T04:58:05;3.77;;;1.97;;
19830;SDS011;10076;52.008;4.708;2022-11-20T05:00:32;3.57;;;2.17;;
19830;SDS011;10076;52.008;4.708;2022-11-20T05:02:57;2.70;;;2.30;;
19830;SDS011;10076;52.008;4.708;2022-11-20T05:05:22;2.93;;;2.40;;
19830;SDS011;10076;52.008;4.708;2022-11-20T05:07:48;8.63;;;2.30;;
19830;SDS011;10076;52.008;4.708;2022-11-20T05:10:13;4.97;;;2.97;;
19830;SDS011;10076;52.008;4.708;2022-11-20T05:12:39;6.47;;;3.00;;
19830;SDS011;10076;52.008;4.708;2022-11-20T05:15:04;5.80;;;3.33;;
19830;SDS011;10076;52.008;4.708;2022-11-20T05:17:30;7.93;;;3.70;;
19830;SDS011;10076;52.008;4.708;2022-11-20T05:19:55;9.20;;;3.47;;
19830;SDS011;10076;52.008;4.708;2022-11-20T05:22:20;3.50;;;2.93;;
19830;SDS011;10076;52.008;4.708;2022-11-20T05:24:45;4.70;;;2.13;;
19830;SDS011;10076;52.008;4.708;2022-11-20T05:27:11;4.83;;;2.33;;
19830;SDS011;10076;52.008;4.708;2022-11-20T05:29:36;2.63;;;2.20;;
19830;SDS011;10076;52.008;4.708;2022-11-20T05:32:01;5.83;;;2.77;;
19830;SDS011;10076;52.008;4.708;2022-11-20T05:34:27;6.37;;;3.97;;
19830;SDS011;10076;52.008;4.708;2022-11-20T05:36:52;3.53;;;2.60;;
19830;SDS011;10076;52.008;4.708;2022-11-20T05:39:17;4.23;;;3.00;;
19830;SDS011;10076;52.008;4.708;2022-11-20T05:41:42;2.80;;;2.60;;
19830;SDS011;10076;52.008;4.708;2022-11-20T05:44:10;6.93;;;3.30;;
19830;SDS011;10076;52.008;4.708;2022-11-20T05:46:35;5.90;;;2.97;;
19830;SDS011;10076;52.008;4.708;2022-11-20T05:49:01;5.83;;;2.63;;
19830;SDS011;10076;52.008;4.708;2022-11-20T05:51:26;3.50;;;2.40;;
19830;SDS011;10076;52.008;4.708;2022-11-20T05:53:52;4.63;;;1.97;;
19830;SDS011;10076;52.008;4.708;2022-11-20T05:56:18;2.43;;;2.20;;
19830;SDS011;10076;52.008;4.708;2022-11-20T05:58:45;3.30;;;2.57;;
19830;SDS011;10076;52.008;4.708;2022-11-20T06:01:12;6.93;;;2.73;;
19830;SDS011;10076;52.008;4.708;2022-11-20T06:03:39;4.67;;;3.20;;
19830;SDS011;10076;52.008;4.708;2022-11-20T06:06:07;3.77;;;3.37;;
19830;SDS011;10076;52.008;4.708;2022-11-20T06:08:33;7.27;;;2.53;;
19830;SDS011;10076;52.008;4.708;2022-11-20T06:11:02;5.20;;;2.87;;
19830;SDS011;10076;52.008;4.708;2022-11-20T06:13:28;6.77;;;5.37;;
19830;SDS011;10076;52.008;4.708;2022-11-20T06:15:54;2.77;;;2.57;;
19830;SDS011;10076;52.008;4.708;2022-11-20T06:18:19;8.40;;;3.37;;
19830;SDS011;10076;52.008;4.708;2022-11-20T06:20:45;3.33;;;1.80;;
19830;SDS011;10076;52.008;4.708;2022-11-20T06:23:11;3.33;;;2.13;;
19830;SDS011;10076;52.008;4.708;2022-11-20T06:25:37;2.17;;;2.07;;
19830;SDS011;10076;52.008;4.708;2022-11-20T06:28:06;3.90;;;3.57;;
19830;SDS011;10076;52.008;4.708;2022-11-20T06:30:32;3.07;;;2.20;;
19830;SDS011;10076;52.008;4.708;2022-11-20T06:32:57;7.33;;;3.53;;
19830;SDS011;10076;52.008;4.708;2022-11-20T06:35:23;6.63;;;3.00;;
19830;SDS011;10076;52.008;4.708;2022-11-20T06:37:48;6.67;;;2.87;;
19830;SDS011;10076;52.008;4.708;2022-11-20T06:40:13;3.93;;;3.03;;
19830;SDS011;10076;52.008;4.708;2022-11-20T06:42:38;8.57;;;3.73;;
19830;SDS011;10076;52.008;4.708;2022-11-20T06:45:04;7.37;;;3.40;;
19830;SDS011;10076;52.008;4.708;2022-11-20T06:47:29;3.80;;;2.27;;
19830;SDS011;10076;52.008;4.708;2022-11-20T06:49:55;2.83;;;2.13;;
19830;SDS011;10076;52.008;4.708;2022-11-20T06:52:20;5.10;;;3.93;;
19830;SDS011;10076;52.008;4.708;2022-11-20T06:54:45;4.70;;;3.43;;
19830;SDS011;10076;52.008;4.708;2022-11-20T06:57:11;6.23;;;3.23;;
19830;SDS011;10076;52.008;4.708;2022-11-20T06:59:36;5.90;;;3.30;;
19830;SDS011;10076;52.008;4.708;2022-11-20T07:02:01;8.77;;;2.97;;
19830;SDS011;10076;52.008;4.708;2022-11-20T07:04:27;3.63;;;2.90;;
19830;SDS011;10076;52.008;4.708;2022-11-20T07:06:52;6.67;;;3.07;;
19830;SDS011;10076;52.008;4.708;2022-11-20T07:09:17;4.83;;;3.50;;
19830;SDS011;10076;52.008;4.708;2022-11-20T07:11:43;3.77;;;3.37;;
19830;SDS011;10076;52.008;4.708;2022-11-20T07:14:08;3.10;;;2.13;;
19830;SDS011;10076;52.008;4.708;2022-11-20T07:16:33;7.33;;;3.10;;
19830;SDS011;10076;52.008;4.708;2022-11-20T07:18:58;9.77;;;4.13;;
19830;SDS011;10076;52.008;4.708;2022-11-20T07:21:24;8.30;;;3.03;;
19830;SDS011;10076;52.008;4.708;2022-11-20T07:23:49;5.00;;;3.83;;
19830;SDS011;10076;52.008;4.708;2022-11-20T07:26:14;7.03;;;4.00;;
19830;SDS011;10076;52.008;4.708;2022-11-20T07:28:40;4.93;;;3.57;;
19830;SDS011;10076;52.008;4.708;2022-11-20T07:31:08;4.63;;;2.70;;
19830;SDS011;10076;52.008;4.708;2022-11-20T07:33:33;4.07;;;3.07;;
19830;SDS011;10076;52.008;4.708;2022-11-20T07:35:59;4.00;;;2.57;;
19830;SDS011;10076;52.008;4.708;2022-11-20T07:38:25;7.70;;;3.53;;
19830;SDS011;10076;52.008;4.708;2022-11-20T07:40:53;7.33;;;2.63;;
19830;SDS011;10076;52.008;4.708;2022-11-20T07:43:19;3.10;;;2.57;;
19830;SDS011;10076;52.008;4.708;2022-11-20T07:45:44;5.17;;;2.90;;
19830;SDS011;10076;52.008;4.708;2022-11-20T07:48:10;8.20;;;4.20;;
19830;SDS011;10076;52.008;4.708;2022-11-20T07:50:35;7.47;;;3.70;;
19830;SDS011;10076;52.008;4.708;2022-11-20T07:53:01;7.07;;;3.10;;
19830;SDS011;10076;52.008;4.708;2022-11-20T07:55:28;4.37;;;3.57;;
19830;SDS011;10076;52.008;4.708;2022-11-20T07:57:56;6.93;;;3.60;;
19830;SDS011;10076;52.008;4.708;2022-11-20T08:00:22;8.40;;;3.67;;
19830;SDS011;10076;52.008;4.708;2022-11-20T08:02:48;6.67;;;4.10;;
19830;SDS011;10076;52.008;4.708;2022-11-20T08:05:13;6.97;;;4.17;;
19830;SDS011;10076;52.008;4.708;2022-11-20T08:07:39;5.60;;;2.90;;
19830;SDS011;10076;52.008;4.708;2022-11-20T08:10:06;8.87;;;3.67;;
19830;SDS011;10076;52.008;4.708;2022-11-20T08:12:32;5.93;;;3.13;;
19830;SDS011;10076;52.008;4.708;2022-11-20T08:15:16;3.93;;;3.13;;
19830;SDS011;10076;52.008;4.708;2022-11-20T08:17:42;6.87;;;4.13;;
19830;SDS011;10076;52.008;4.708;2022-11-20T08:20:07;7.40;;;4.17;;
19830;SDS011;10076;52.008;4.708;2022-11-20T08:22:33;6.30;;;3.87;;
19830;SDS011;10076;52.008;4.708;2022-11-20T08:24:58;8.70;;;6.17;;
19830;SDS011;10076;52.008;4.708;2022-11-20T08:27:23;6.40;;;4.07;;
19830;SDS011;10076;52.008;4.708;2022-11-20T08:29:49;10.10;;;5.20;;
19830;SDS011;10076;52.008;4.708;2022-11-20T08:32:14;5.17;;;4.37;;
19830;SDS011;10076;52.008;4.708;2022-11-20T08:34:39;7.07;;;4.27;;
19830;SDS011;10076;52.008;4.708;2022-11-20T08:37:05;5.23;;;4.37;;
19830;SDS011;10076;52.008;4.708;2022-11-20T08:39:30;6.90;;;4.03;;
19830;SDS011;10076;52.008;4.708;2022-11-20T08:41:55;4.73;;;4.10;;
19830;SDS011;10076;52.008;4.708;2022-11-20T08:44:21;8.10;;;5.43;;
19830;SDS011;10076;52.008;4.708;2022-11-20T08:46:47;8.07;;;4.77;;
19830;SDS011;10076;52.008;4.708;2022-11-20T08:49:12;7.93;;;3.97;;
19830;SDS011;10076;52.008;4.708;2022-11-20T08:51:39;5.60;;;4.27;;
19830;SDS011;10076;52.008;4.708;2022-11-20T08:54:05;11.50;;;5.37;;
19830;SDS011;10076;52.008;4.708;2022-11-20T08:56:31;4.63;;;3.67;;
19830;SDS011;10076;52.008;4.708;2022-11-20T08:58:57;5.83;;;3.87;;
19830;SDS011;10076;52.008;4.708;2022-11-20T09:01:24;6.73;;;3.90;;
19830;SDS011;10076;52.008;4.708;2022-11-20T09:03:49;7.87;;;4.20;;
19830;SDS011;10076;52.008;4.708;2022-11-20T09:06:15;6.27;;;4.27;;
19830;SDS011;10076;52.008;4.708;2022-11-20T09:08:41;8.30;;;3.93;;
19830;SDS011;10076;52.008;4.708;2022-11-20T09:11:06;10.33;;;4.60;;
19830;SDS011;10076;52.008;4.708;2022-11-20T09:13:33;7.57;;;5.10;;
19830;SDS011;10076;52.008;4.708;2022-11-20T09:16:01;5.07;;;4.37;;
19830;SDS011;10076;52.008;4.708;2022-11-20T09:18:29;11.27;;;4.90;;
19830;SDS011;10076;52.008;4.708;2022-11-20T09:21:00;8.10;;;4.90;;
19830;SDS011;10076;52.008;4.708;2022-11-20T09:23:27;7.53;;;5.13;;
19830;SDS011;10076;52.008;4.708;2022-11-20T09:25:55;9.53;;;4.70;;
19830;SDS011;10076;52.008;4.708;2022-11-20T09:28:24;12.60;;;6.23;;
19830;SDS011;10076;52.008;4.708;2022-11-20T09:30:50;9.80;;;5.07;;
19830;SDS011;10076;52.008;4.708;2022-11-20T09:33:15;9.67;;;4.97;;
19830;SDS011;10076;52.008;4.708;2022-11-20T09:35:40;6.97;;;4.10;;
19830;SDS011;10076;52.008;4.708;2022-11-20T09:38:06;6.97;;;4.73;;
19830;SDS011;10076;52.008;4.708;2022-11-20T09:40:32;9.67;;;5.27;;
19830;SDS011;10076;52.008;4.708;2022-11-20T09:43:18;6.50;;;4.37;;
19830;SDS011;10076;52.008;4.708;2022-11-20T09:46:05;8.47;;;4.73;;
19830;SDS011;10076;52.008;4.708;2022-11-20T09:48:42;6.43;;;4.43;;
19830;SDS011;10076;52.008;4.708;2022-11-20T09:51:21;8.13;;;5.33;;
19830;SDS011;10076;52.008;4.708;2022-11-20T09:56:42;7.93;;;4.13;;
19830;SDS011;10076;52.008;4.708;2022-11-20T09:59:25;10.53;;;5.43;;
19830;SDS011;10076;52.008;4.708;2022-11-20T10:01:57;7.17;;;4.87;;
19830;SDS011;10076;52.008;4.708;2022-11-20T10:04:24;9.90;;;5.10;;
19830;SDS011;10076;52.008;4.708;2022-11-20T10:06:55;10.07;;;4.87;;
19830;SDS011;10076;52.008;4.708;2022-11-20T10:09:27;13.13;;;7.77;;
19830;SDS011;10076;52.008;4.708;2022-11-20T10:19:37;8.70;;;5.47;;
19830;SDS011;10076;52.008;4.708;2022-11-20T10:25:20;15.87;;;7.40;;
19830;SDS011;10076;52.008;4.708;2022-11-20T10:30:51;7.33;;;4.30;;
19830;SDS011;10076;52.008;4.708;2022-11-20T10:33:24;11.70;;;4.93;;
19830;SDS011;10076;52.008;4.708;2022-11-20T10:38:37;10.40;;;6.03;;
19830;SDS011;10076;52.008;4.708;2022-11-20T10:41:07;6.47;;;4.83;;
19830;SDS011;10076;52.008;4.708;2022-11-20T10:43:53;8.47;;;4.80;;
19830;SDS011;10076;52.008;4.708;2022-11-20T10:46:25;9.00;;;4.77;;
19830;SDS011;10076;52.008;4.708;2022-11-20T10:48:57;7.23;;;5.30;;
19830;SDS011;10076;52.008;4.708;2022-11-20T10:56:41;12.03;;;5.77;;
19830;SDS011;10076;52.008;4.708;2022-11-20T11:01:47;10.17;;;5.30;;
19830;SDS011;10076;52.008;4.708;2022-11-20T11:04:55;8.33;;;5.47;;
19830;SDS011;10076;52.008;4.708;2022-11-20T11:07:12;8.37;;;5.03;;
19830;SDS011;10076;52.008;4.708;2022-11-20T11:09:43;8.70;;;6.20;;
19830;SDS011;10076;52.008;4.708;2022-11-20T11:12:12;12.73;;;7.10;;
19830;SDS011;10076;52.008;4.708;2022-11-20T11:14:41;8.93;;;4.90;;
19830;SDS011;10076;52.008;4.708;2022-11-20T11:17:17;10.93;;;6.07;;
19830;SDS011;10076;52.008;4.708;2022-11-20T11:19:45;12.70;;;6.13;;
19830;SDS011;10076;52.008;4.708;2022-11-20T11:22:11;14.53;;;6.13;;
19830;SDS011;10076;52.008;4.708;2022-11-20T11:24:51;11.47;;;5.47;;
19830;SDS011;10076;52.008;4.708;2022-11-20T11:27:17;12.03;;;4.90;;
19830;SDS011;10076;52.008;4.708;2022-11-20T11:29:43;12.33;;;5.97;;
19830;SDS011;10076;52.008;4.708;2022-11-20T11:32:11;10.07;;;4.83;;
19830;SDS011;10076;52.008;4.708;2022-11-20T11:34:37;12.73;;;5.27;;
19830;SDS011;10076;52.008;4.708;2022-11-20T11:37:03;11.30;;;6.73;;
19830;SDS011;10076;52.008;4.708;2022-11-20T11:39:30;9.60;;;5.37;;
19830;SDS011;10076;52.008;4.708;2022-11-20T11:41:57;9.67;;;5.57;;
19830;SDS011;10076;52.008;4.708;2022-11-20T11:44:26;10.60;;;5.30;;
19830;SDS011;10076;52.008;4.708;2022-11-20T11:47:22;13.63;;;5.93;;
19830;SDS011;10076;52.008;4.708;2022-11-20T11:52:35;11.97;;;6.83;;
19830;SDS011;10076;52.008;4.708;2022-11-20T11:55:07;12.03;;;6.27;;
19830;SDS011;10076;52.008;4.708;2022-11-20T11:57:52;11.20;;;5.97;;
19830;SDS011;10076;52.008;4.708;2022-11-20T12:00:24;9.80;;;5.27;;
19830;SDS011;10076;52.008;4.708;2022-11-20T12:03:00;14.27;;;5.63;;
19830;SDS011;10076;52.008;4.708;2022-11-20T12:05:38;9.03;;;5.73;;
19830;SDS011;10076;52.008;4.708;2022-11-20T12:08:22;12.20;;;6.03;;
19830;SDS011;10076;52.008;4.708;2022-11-20T12:10:59;10.17;;;6.03;;
19830;SDS011;10076;52.008;4.708;2022-11-20T12:13:34;11.07;;;6.80;;
19830;SDS011;10076;52.008;4.708;2022-11-20T12:16:05;14.77;;;7.10;;
19830;SDS011;10076;52.008;4.708;2022-11-20T12:18:33;13.27;;;6.23;;
19830;SDS011;10076;52.008;4.708;2022-11-20T12:21:11;11.63;;;6.93;;
19830;SDS011;10076;52.008;4.708;2022-11-20T12:32:06;15.77;;;7.40;;
19830;SDS011;10076;52.008;4.708;2022-11-20T12:34:42;10.53;;;4.87;;
19830;SDS011;10076;52.008;4.708;2022-11-20T12:37:15;16.23;;;6.43;;
19830;SDS011;10076;52.008;4.708;2022-11-20T12:39:42;11.17;;;5.63;;
19830;SDS011;10076;52.008;4.708;2022-11-20T12:47:54;9.63;;;6.67;;
19830;SDS011;10076;52.008;4.708;2022-11-20T12:53:40;13.90;;;7.20;;
19830;SDS011;10076;52.008;4.708;2022-11-20T12:56:26;11.40;;;6.40;;
19830;SDS011;10076;52.008;4.708;2022-11-20T13:07:29;12.10;;;5.93;;
19830;SDS011;10076;52.008;4.708;2022-11-20T13:09:55;14.67;;;7.67;;
19830;SDS011;10076;52.008;4.708;2022-11-20T13:12:24;15.67;;;6.67;;
19830;SDS011;10076;52.008;4.708;2022-11-20T13:17:41;16.20;;;7.60;;
19830;SDS011;10076;52.008;4.708;2022-11-20T13:20:14;17.50;;;7.17;;
19830;SDS011;10076;52.008;4.708;2022-11-20T13:22:43;15.20;;;7.03;;
19830;SDS011;10076;52.008;4.708;2022-11-20T13:25:21;18.33;;;6.77;;
19830;SDS011;10076;52.008;4.708;2022-11-20T13:30:35;11.10;;;5.53;;
19830;SDS011;10076;52.008;4.708;2022-11-20T13:35:53;13.43;;;6.63;;
19830;SDS011;10076;52.008;4.708;2022-11-20T13:38:27;16.50;;;7.47;;
19830;SDS011;10076;52.008;4.708;2022-11-20T13:45:54;14.47;;;8.37;;
19830;SDS011;10076;52.008;4.708;2022-11-20T13:48:26;15.13;;;7.60;;
19830;SDS011;10076;52.008;4.708;2022-11-20T13:50:57;19.97;;;8.17;;
19830;SDS011;10076;52.008;4.708;2022-11-20T13:56:14;18.67;;;7.30;;
19830;SDS011;10076;52.008;4.708;2022-11-20T14:01:26;11.57;;;6.23;;
19830;SDS011;10076;52.008;4.708;2022-11-20T14:03:56;14.73;;;7.47;;
19830;SDS011;10076;52.008;4.708;2022-11-20T14:06:29;16.63;;;7.83;;
19830;SDS011;10076;52.008;4.708;2022-11-20T14:08:58;15.30;;;7.60;;
19830;SDS011;10076;52.008;4.708;2022-11-20T14:11:28;12.53;;;7.70;;
19830;SDS011;10076;52.008;4.708;2022-11-20T14:13:56;14.77;;;7.33;;
19830;SDS011;10076;52.008;4.708;2022-11-20T14:16:33;16.13;;;8.27;;
19830;SDS011;10076;52.008;4.708;2022-11-20T14:21:47;16.73;;;7.47;;
19830;SDS011;10076;52.008;4.708;2022-11-20T14:24:13;11.20;;;6.07;;
19830;SDS011;10076;52.008;4.708;2022-11-20T14:26:44;17.00;;;8.43;;
19830;SDS011;10076;52.008;4.708;2022-11-20T14:29:21;17.03;;;8.77;;
19830;SDS011;10076;52.008;4.708;2022-11-20T14:31:53;18.17;;;6.87;;
19830;SDS011;10076;52.008;4.708;2022-11-20T14:34:27;16.27;;;6.97;;
19830;SDS011;10076;52.008;4.708;2022-11-20T14:37:02;17.27;;;7.77;;
19830;SDS011;10076;52.008;4.708;2022-11-20T14:39:33;15.13;;;7.67;;
19830;SDS011;10076;52.008;4.708;2022-11-20T14:42:00;15.73;;;7.80;;
19830;SDS011;10076;52.008;4.708;2022-11-20T14:44:27;20.37;;;8.50;;
19830;SDS011;10076;52.008;4.708;2022-11-20T14:46:56;17.03;;;9.40;;
19830;SDS011;10076;52.008;4.708;2022-11-20T14:49:23;17.73;;;7.43;;
19830;SDS011;10076;52.008;4.708;2022-11-20T14:51:58;18.30;;;8.50;;
19830;SDS011;10076;52.008;4.708;2022-11-20T14:54:25;14.43;;;7.93;;
19830;SDS011;10076;52.008;4.708;2022-11-20T14:56:59;19.63;;;7.03;;
19830;SDS011;10076;52.008;4.708;2022-11-20T14:59:27;16.23;;;7.43;;
19830;SDS011;10076;52.008;4.708;2022-11-20T15:01:59;12.90;;;6.47;;
19830;SDS011;10076;52.008;4.708;2022-11-20T15:04:43;24.63;;;8.60;;
19830;SDS011;10076;52.008;4.708;2022-11-20T15:07:10;16.60;;;8.17;;
19830;SDS011;10076;52.008;4.708;2022-11-20T15:09:35;21.27;;;7.90;;
19830;SDS011;10076;52.008;4.708;2022-11-20T15:12:01;21.47;;;7.80;;
19830;SDS011;10076;52.008;4.708;2022-11-20T15:14:28;17.67;;;8.97;;
19830;SDS011;10076;52.008;4.708;2022-11-20T15:16:55;21.00;;;9.70;;
19830;SDS011;10076;52.008;4.708;2022-11-20T15:19:22;17.83;;;8.50;;
19830;SDS011;10076;52.008;4.708;2022-11-20T15:21:48;18.67;;;8.13;;
19830;SDS011;10076;52.008;4.708;2022-11-20T15:24:14;15.23;;;7.43;;
19830;SDS011;10076;52.008;4.708;2022-11-20T15:26:40;12.53;;;7.10;;
19830;SDS011;10076;52.008;4.708;2022-11-20T15:29:09;15.23;;;8.83;;
19830;SDS011;10076;52.008;4.708;2022-11-20T15:31:36;12.67;;;7.17;;
19830;SDS011;10076;52.008;4.708;2022-11-20T15:34:02;22.90;;;8.03;;
19830;SDS011;10076;52.008;4.708;2022-11-20T15:36:28;20.00;;;9.53;;
19830;SDS011;10076;52.008;4.708;2022-11-20T15:38:53;17.73;;;7.90;;
19830;SDS011;10076;52.008;4.708;2022-11-20T15:41:18;17.50;;;7.53;;
19830;SDS011;10076;52.008;4.708;2022-11-20T15:43:44;17.43;;;7.00;;
19830;SDS011;10076;52.008;4.708;2022-11-20T15:46:11;20.97;;;6.93;;
19830;SDS011;10076;52.008;4.708;2022-11-20T15:48:51;13.93;;;6.60;;
19830;SDS011;10076;52.008;4.708;2022-11-20T15:51:31;14.17;;;6.03;;
19830;SDS011;10076;52.008;4.708;2022-11-20T15:53:59;12.50;;;7.27;;
19830;SDS011;10076;52.008;4.708;2022-11-20T15:56:25;15.47;;;7.93;;
19830;SDS011;10076;52.008;4.708;2022-11-20T15:58:51;12.57;;;6.30;;
19830;SDS011;10076;52.008;4.708;2022-11-20T16:01:20;16.97;;;7.10;;
19830;SDS011;10076;52.008;4.708;2022-11-20T16:03:47;14.63;;;8.17;;
19830;SDS011;10076;52.008;4.708;2022-11-20T16:06:13;14.13;;;7.40;;
19830;SDS011;10076;52.008;4.708;2022-11-20T16:08:40;20.73;;;7.50;;
19830;SDS011;10076;52.008;4.708;2022-11-20T16:11:06;16.63;;;7.67;;
19830;SDS011;10076;52.008;4.708;2022-11-20T16:13:33;18.70;;;8.70;;
19830;SDS011;10076;52.008;4.708;2022-11-20T16:16:21;11.60;;;6.60;;
19830;SDS011;10076;52.008;4.708;2022-11-20T16:18:49;16.87;;;8.33;;